sensor_id;sensor_type;location;lat;lon;timestamp;P1;durP1;ratioP1;P2;durP2;ratioP2
15708;SDS011;7954;51.914;8.420;2022-12-10T00:01:47;16.77;;;14.97;;
15708;SDS011;7954;51.914;8.420;2022-12-10T00:04:16;17.83;;;15.77;;
15708;SDS011;7954;51.914;8.420;2022-12-10T00:06:44;18.40;;;16.40;;
15708;SDS011;7954;51.914;8.420;2022-12-10T00:09:15;18.83;;;16.27;;
15708;SDS011;7954;51.914;8.420;2022-12-10T00:11:44;17.23;;;15.13;;
15708;SDS011;7954;51.914;8.420;2022-12-10T00:14:13;17.17;;;15.37;;
15708;SDS011;7954;51.914;8.420;2022-12-10T00:16:42;18.30;;;15.23;;
15708;SDS011;7954;51.914;8.420;2022-12-10T00:19:11;17.57;;;15.07;;
15708;SDS011;7954;51.914;8.420;2022-12-10T00:21:39;18.27;;;16.37;;
15708;SDS011;7954;51.914;8.420;2022-12-10T00:24:08;18.67;;;15.87;;
15708;SDS011;7954;51.914;8.420;2022-12-10T00:26:40;18.23;;;15.53;;
15708;SDS011;7954;51.914;8.420;2022-12-10T00:29:09;19.30;;;16.67;;
15708;SDS011;7954;51.914;8.420;2022-12-10T00:31:39;17.07;;;15.07;;
15708;SDS011;7954;51.914;8.420;2022-12-10T00:34:08;17.13;;;15.33;;
15708;SDS011;7954;51.914;8.420;2022-12-10T00:36:41;17.07;;;15.27;;
15708;SDS011;7954;51.914;8.420;2022-12-10T00:39:11;18.43;;;15.93;;
15708;SDS011;7954;51.914;8.420;2022-12-10T00:41:41;16.80;;;15.07;;
15708;SDS011;7954;51.914;8.420;2022-12-10T00:44:08;15.33;;;13.73;;
15708;SDS011;7954;51.914;8.420;2022-12-10T00:46:37;17.23;;;15.47;;
15708;SDS011;7954;51.914;8.420;2022-12-10T00:49:04;17.43;;;15.00;;
15708;SDS011;7954;51.914;8.420;2022-12-10T00:51:32;16.07;;;14.37;;
15708;SDS011;7954;51.914;8.420;2022-12-10T00:54:02;15.47;;;13.83;;
15708;SDS011;7954;51.914;8.420;2022-12-10T00:56:31;16.97;;;14.97;;
15708;SDS011;7954;51.914;8.420;2022-12-10T00:59:00;16.77;;;15.07;;
15708;SDS011;7954;51.914;8.420;2022-12-10T01:01:29;17.47;;;14.10;;
15708;SDS011;7954;51.914;8.420;2022-12-10T01:03:59;15.97;;;14.40;;
15708;SDS011;7954;51.914;8.420;2022-12-10T01:06:29;14.60;;;13.10;;
15708;SDS011;7954;51.914;8.420;2022-12-10T01:08:59;15.43;;;13.80;;
15708;SDS011;7954;51.914;8.420;2022-12-10T01:11:35;14.47;;;12.97;;
15708;SDS011;7954;51.914;8.420;2022-12-10T01:14:05;15.77;;;14.07;;
15708;SDS011;7954;51.914;8.420;2022-12-10T01:16:34;14.90;;;13.30;;
15708;SDS011;7954;51.914;8.420;2022-12-10T01:19:02;16.07;;;14.30;;
15708;SDS011;7954;51.914;8.420;2022-12-10T01:21:31;15.20;;;13.43;;
15708;SDS011;7954;51.914;8.420;2022-12-10T01:23:59;15.07;;;13.57;;
15708;SDS011;7954;51.914;8.420;2022-12-10T01:26:29;14.60;;;13.10;;
15708;SDS011;7954;51.914;8.420;2022-12-10T01:28:58;15.93;;;14.27;;
15708;SDS011;7954;51.914;8.420;2022-12-10T01:31:28;16.17;;;14.50;;
15708;SDS011;7954;51.914;8.420;2022-12-10T01:33:58;15.17;;;13.67;;
15708;SDS011;7954;51.914;8.420;2022-12-10T01:36:27;15.73;;;14.10;;
15708;SDS011;7954;51.914;8.420;2022-12-10T01:38:58;16.27;;;14.67;;
15708;SDS011;7954;51.914;8.420;2022-12-10T01:41:30;16.30;;;14.60;;
15708;SDS011;7954;51.914;8.420;2022-12-10T01:44:05;15.60;;;14.00;;
15708;SDS011;7954;51.914;8.420;2022-12-10T01:47:10;16.53;;;14.83;;
15708;SDS011;7954;51.914;8.420;2022-12-10T01:49:40;15.87;;;14.27;;
15708;SDS011;7954;51.914;8.420;2022-12-10T01:52:10;16.07;;;14.47;;
15708;SDS011;7954;51.914;8.420;2022-12-10T01:54:40;15.23;;;13.73;;
15708;SDS011;7954;51.914;8.420;2022-12-10T01:57:14;15.03;;;13.57;;
15708;SDS011;7954;51.914;8.420;2022-12-10T01:59:45;16.00;;;14.33;;
15708;SDS011;7954;51.914;8.420;2022-12-10T02:02:17;15.37;;;13.87;;
15708;SDS011;7954;51.914;8.420;2022-12-10T02:04:55;16.30;;;14.57;;
15708;SDS011;7954;51.914;8.420;2022-12-10T02:07:32;15.17;;;13.67;;
15708;SDS011;7954;51.914;8.420;2022-12-10T02:10:15;15.97;;;14.27;;
15708;SDS011;7954;51.914;8.420;2022-12-10T02:12:53;18.27;;;15.23;;
15708;SDS011;7954;51.914;8.420;2022-12-10T02:15:25;17.20;;;15.37;;
15708;SDS011;7954;51.914;8.420;2022-12-10T02:17:57;16.83;;;14.33;;
15708;SDS011;7954;51.914;8.420;2022-12-10T02:20:30;15.67;;;14.10;;
15708;SDS011;7954;51.914;8.420;2022-12-10T02:23:01;16.77;;;14.97;;
15708;SDS011;7954;51.914;8.420;2022-12-10T02:25:34;16.30;;;14.60;;
15708;SDS011;7954;51.914;8.420;2022-12-10T02:28:12;15.50;;;13.90;;
15708;SDS011;7954;51.914;8.420;2022-12-10T02:30:46;14.43;;;12.93;;
15708;SDS011;7954;51.914;8.420;2022-12-10T02:33:17;16.07;;;14.37;;
15708;SDS011;7954;51.914;8.420;2022-12-10T02:35:47;16.00;;;14.30;;
15708;SDS011;7954;51.914;8.420;2022-12-10T02:38:19;17.87;;;15.77;;
15708;SDS011;7954;51.914;8.420;2022-12-10T02:40:52;17.83;;;15.37;;
15708;SDS011;7954;51.914;8.420;2022-12-10T02:43:23;19.07;;;16.83;;
15708;SDS011;7954;51.914;8.420;2022-12-10T02:45:55;16.77;;;15.07;;
15708;SDS011;7954;51.914;8.420;2022-12-10T02:48:25;17.40;;;15.60;;
15708;SDS011;7954;51.914;8.420;2022-12-10T02:50:53;16.83;;;15.03;;
15708;SDS011;7954;51.914;8.420;2022-12-10T02:53:21;17.87;;;16.00;;
15708;SDS011;7954;51.914;8.420;2022-12-10T02:55:57;18.03;;;16.23;;
15708;SDS011;7954;51.914;8.420;2022-12-10T02:58:40;17.00;;;15.40;;
15708;SDS011;7954;51.914;8.420;2022-12-10T03:01:19;16.30;;;14.67;;
15708;SDS011;7954;51.914;8.420;2022-12-10T03:03:54;15.87;;;14.27;;
15708;SDS011;7954;51.914;8.420;2022-12-10T03:06:27;15.97;;;14.27;;
15708;SDS011;7954;51.914;8.420;2022-12-10T03:08:59;14.63;;;13.23;;
15708;SDS011;7954;51.914;8.420;2022-12-10T03:11:29;15.13;;;13.63;;
15708;SDS011;7954;51.914;8.420;2022-12-10T03:13:58;15.07;;;13.57;;
15708;SDS011;7954;51.914;8.420;2022-12-10T03:16:32;15.20;;;13.70;;
15708;SDS011;7954;51.914;8.420;2022-12-10T03:19:05;14.97;;;13.47;;
15708;SDS011;7954;51.914;8.420;2022-12-10T03:21:38;14.90;;;13.40;;
15708;SDS011;7954;51.914;8.420;2022-12-10T03:24:08;16.10;;;14.43;;
15708;SDS011;7954;51.914;8.420;2022-12-10T03:26:37;14.33;;;12.93;;
15708;SDS011;7954;51.914;8.420;2022-12-10T03:29:09;17.70;;;15.03;;
15708;SDS011;7954;51.914;8.420;2022-12-10T03:31:43;15.90;;;14.27;;
15708;SDS011;7954;51.914;8.420;2022-12-10T03:34:12;16.73;;;15.03;;
15708;SDS011;7954;51.914;8.420;2022-12-10T03:36:41;15.40;;;13.80;;
15708;SDS011;7954;51.914;8.420;2022-12-10T03:39:10;15.57;;;14.00;;
15708;SDS011;7954;51.914;8.420;2022-12-10T03:41:41;18.30;;;16.10;;
15708;SDS011;7954;51.914;8.420;2022-12-10T03:44:10;16.23;;;14.53;;
15708;SDS011;7954;51.914;8.420;2022-12-10T03:46:38;17.10;;;15.30;;
15708;SDS011;7954;51.914;8.420;2022-12-10T03:49:09;17.93;;;16.03;;
15708;SDS011;7954;51.914;8.420;2022-12-10T03:51:37;18.93;;;15.97;;
15708;SDS011;7954;51.914;8.420;2022-12-10T03:54:05;19.90;;;17.40;;
15708;SDS011;7954;51.914;8.420;2022-12-10T03:56:33;16.73;;;15.03;;
15708;SDS011;7954;51.914;8.420;2022-12-10T03:59:01;17.63;;;15.40;;
15708;SDS011;7954;51.914;8.420;2022-12-10T04:01:30;19.17;;;17.20;;
15708;SDS011;7954;51.914;8.420;2022-12-10T04:03:58;17.47;;;15.77;;
15708;SDS011;7954;51.914;8.420;2022-12-10T04:06:27;16.93;;;15.13;;
15708;SDS011;7954;51.914;8.420;2022-12-10T04:08:56;16.07;;;14.37;;
15708;SDS011;7954;51.914;8.420;2022-12-10T04:11:24;16.20;;;14.50;;
15708;SDS011;7954;51.914;8.420;2022-12-10T04:13:52;16.33;;;14.70;;
15708;SDS011;7954;51.914;8.420;2022-12-10T04:16:37;18.47;;;16.60;;
15708;SDS011;7954;51.914;8.420;2022-12-10T04:19:07;17.27;;;15.40;;
15708;SDS011;7954;51.914;8.420;2022-12-10T04:21:38;17.97;;;15.13;;
15708;SDS011;7954;51.914;8.420;2022-12-10T04:24:25;19.27;;;15.20;;
15708;SDS011;7954;51.914;8.420;2022-12-10T04:27:13;18.57;;;15.03;;
15708;SDS011;7954;51.914;8.420;2022-12-10T04:29:44;15.93;;;14.33;;
15708;SDS011;7954;51.914;8.420;2022-12-10T04:32:12;16.67;;;14.87;;
15708;SDS011;7954;51.914;8.420;2022-12-10T04:34:40;15.17;;;13.67;;
15708;SDS011;7954;51.914;8.420;2022-12-10T04:37:09;16.63;;;14.70;;
15708;SDS011;7954;51.914;8.420;2022-12-10T04:39:38;15.87;;;14.27;;
15708;SDS011;7954;51.914;8.420;2022-12-10T04:42:07;16.30;;;14.60;;
15708;SDS011;7954;51.914;8.420;2022-12-10T04:44:35;18.60;;;16.50;;
15708;SDS011;7954;51.914;8.420;2022-12-10T04:47:04;17.20;;;15.40;;
15708;SDS011;7954;51.914;8.420;2022-12-10T04:49:33;16.87;;;15.07;;
15708;SDS011;7954;51.914;8.420;2022-12-10T04:52:02;16.77;;;15.00;;
15708;SDS011;7954;51.914;8.420;2022-12-10T04:54:33;16.20;;;14.60;;
15708;SDS011;7954;51.914;8.420;2022-12-10T04:57:04;15.10;;;13.60;;
15708;SDS011;7954;51.914;8.420;2022-12-10T04:59:33;17.40;;;15.60;;
15708;SDS011;7954;51.914;8.420;2022-12-10T05:02:02;17.83;;;16.00;;
15708;SDS011;7954;51.914;8.420;2022-12-10T05:04:30;16.77;;;15.07;;
15708;SDS011;7954;51.914;8.420;2022-12-10T05:06:58;16.37;;;14.77;;
15708;SDS011;7954;51.914;8.420;2022-12-10T05:09:27;16.17;;;14.53;;
15708;SDS011;7954;51.914;8.420;2022-12-10T05:11:57;18.20;;;15.73;;
15708;SDS011;7954;51.914;8.420;2022-12-10T05:14:24;16.97;;;15.17;;
15708;SDS011;7954;51.914;8.420;2022-12-10T05:16:53;16.20;;;14.57;;
15708;SDS011;7954;51.914;8.420;2022-12-10T05:19:21;16.33;;;14.63;;
15708;SDS011;7954;51.914;8.420;2022-12-10T05:21:49;17.27;;;15.53;;
15708;SDS011;7954;51.914;8.420;2022-12-10T05:24:35;15.97;;;14.37;;
15708;SDS011;7954;51.914;8.420;2022-12-10T05:27:04;16.30;;;14.60;;
15708;SDS011;7954;51.914;8.420;2022-12-10T05:29:32;16.00;;;14.50;;
15708;SDS011;7954;51.914;8.420;2022-12-10T05:32:01;16.83;;;15.13;;
15708;SDS011;7954;51.914;8.420;2022-12-10T05:34:31;17.47;;;15.77;;
15708;SDS011;7954;51.914;8.420;2022-12-10T05:36:59;15.30;;;13.77;;
15708;SDS011;7954;51.914;8.420;2022-12-10T05:39:26;17.03;;;15.40;;
15708;SDS011;7954;51.914;8.420;2022-12-10T05:41:54;15.60;;;14.00;;
15708;SDS011;7954;51.914;8.420;2022-12-10T05:44:23;15.10;;;13.60;;
15708;SDS011;7954;51.914;8.420;2022-12-10T05:46:52;14.93;;;13.40;;
15708;SDS011;7954;51.914;8.420;2022-12-10T05:49:20;17.10;;;15.40;;
15708;SDS011;7954;51.914;8.420;2022-12-10T05:51:47;15.77;;;14.23;;
15708;SDS011;7954;51.914;8.420;2022-12-10T05:54:15;16.43;;;14.77;;
15708;SDS011;7954;51.914;8.420;2022-12-10T05:56:43;14.93;;;13.43;;
15708;SDS011;7954;51.914;8.420;2022-12-10T05:59:11;16.90;;;15.20;;
15708;SDS011;7954;51.914;8.420;2022-12-10T06:01:44;17.10;;;15.40;;
15708;SDS011;7954;51.914;8.420;2022-12-10T06:04:12;16.60;;;14.90;;
15708;SDS011;7954;51.914;8.420;2022-12-10T06:06:40;15.57;;;14.07;;
15708;SDS011;7954;51.914;8.420;2022-12-10T06:09:10;16.13;;;14.53;;
15708;SDS011;7954;51.914;8.420;2022-12-10T06:11:40;14.40;;;13.00;;
15708;SDS011;7954;51.914;8.420;2022-12-10T06:14:09;15.37;;;13.87;;
15708;SDS011;7954;51.914;8.420;2022-12-10T06:16:39;15.40;;;13.90;;
15708;SDS011;7954;51.914;8.420;2022-12-10T06:19:10;16.00;;;14.40;;
15708;SDS011;7954;51.914;8.420;2022-12-10T06:21:38;15.10;;;13.70;;
15708;SDS011;7954;51.914;8.420;2022-12-10T06:24:06;14.77;;;13.27;;
15708;SDS011;7954;51.914;8.420;2022-12-10T06:26:35;13.20;;;12.00;;
15708;SDS011;7954;51.914;8.420;2022-12-10T06:29:03;14.43;;;13.00;;
15708;SDS011;7954;51.914;8.420;2022-12-10T06:31:32;15.50;;;14.00;;
15708;SDS011;7954;51.914;8.420;2022-12-10T06:34:00;14.63;;;13.23;;
15708;SDS011;7954;51.914;8.420;2022-12-10T06:36:29;15.60;;;14.07;;
15708;SDS011;7954;51.914;8.420;2022-12-10T06:38:57;14.57;;;13.17;;
15708;SDS011;7954;51.914;8.420;2022-12-10T06:41:25;13.50;;;12.20;;
15708;SDS011;7954;51.914;8.420;2022-12-10T06:43:53;14.17;;;12.80;;
15708;SDS011;7954;51.914;8.420;2022-12-10T06:46:24;13.70;;;12.40;;
15708;SDS011;7954;51.914;8.420;2022-12-10T06:48:54;14.70;;;13.20;;
15708;SDS011;7954;51.914;8.420;2022-12-10T06:51:21;14.97;;;13.57;;
15708;SDS011;7954;51.914;8.420;2022-12-10T06:53:51;14.97;;;13.47;;
15708;SDS011;7954;51.914;8.420;2022-12-10T06:56:20;13.80;;;12.50;;
15708;SDS011;7954;51.914;8.420;2022-12-10T06:58:49;14.90;;;13.57;;
15708;SDS011;7954;51.914;8.420;2022-12-10T07:01:18;14.37;;;12.97;;
15708;SDS011;7954;51.914;8.420;2022-12-10T07:03:48;14.70;;;13.27;;
15708;SDS011;7954;51.914;8.420;2022-12-10T07:06:17;15.30;;;13.80;;
15708;SDS011;7954;51.914;8.420;2022-12-10T07:08:45;15.63;;;14.03;;
15708;SDS011;7954;51.914;8.420;2022-12-10T07:11:16;14.97;;;13.57;;
15708;SDS011;7954;51.914;8.420;2022-12-10T07:13:45;15.17;;;13.67;;
15708;SDS011;7954;51.914;8.420;2022-12-10T07:16:14;14.27;;;12.93;;
15708;SDS011;7954;51.914;8.420;2022-12-10T07:18:42;14.50;;;13.00;;
15708;SDS011;7954;51.914;8.420;2022-12-10T07:21:18;14.10;;;12.70;;
15708;SDS011;7954;51.914;8.420;2022-12-10T07:23:48;15.67;;;14.10;;
15708;SDS011;7954;51.914;8.420;2022-12-10T07:26:18;14.70;;;13.20;;
15708;SDS011;7954;51.914;8.420;2022-12-10T07:28:46;14.73;;;13.30;;
15708;SDS011;7954;51.914;8.420;2022-12-10T07:31:19;14.63;;;13.17;;
15708;SDS011;7954;51.914;8.420;2022-12-10T07:33:48;15.93;;;14.33;;
15708;SDS011;7954;51.914;8.420;2022-12-10T07:36:16;15.80;;;14.30;;
15708;SDS011;7954;51.914;8.420;2022-12-10T07:38:45;16.13;;;14.70;;
15708;SDS011;7954;51.914;8.420;2022-12-10T07:41:13;16.00;;;14.47;;
15708;SDS011;7954;51.914;8.420;2022-12-10T07:43:43;13.37;;;12.07;;
15708;SDS011;7954;51.914;8.420;2022-12-10T07:46:14;14.47;;;13.07;;
15708;SDS011;7954;51.914;8.420;2022-12-10T07:48:44;14.27;;;12.97;;
15708;SDS011;7954;51.914;8.420;2022-12-10T07:51:14;13.97;;;12.57;;
15708;SDS011;7954;51.914;8.420;2022-12-10T07:53:43;13.07;;;11.80;;
15708;SDS011;7954;51.914;8.420;2022-12-10T07:56:11;13.53;;;12.23;;
15708;SDS011;7954;51.914;8.420;2022-12-10T07:58:40;14.30;;;12.90;;
15708;SDS011;7954;51.914;8.420;2022-12-10T08:01:11;13.60;;;12.40;;
15708;SDS011;7954;51.914;8.420;2022-12-10T08:03:40;14.57;;;13.07;;
15708;SDS011;7954;51.914;8.420;2022-12-10T08:06:10;13.57;;;12.27;;
15708;SDS011;7954;51.914;8.420;2022-12-10T08:08:40;13.73;;;12.47;;
15708;SDS011;7954;51.914;8.420;2022-12-10T08:11:09;13.10;;;11.90;;
15708;SDS011;7954;51.914;8.420;2022-12-10T08:13:37;15.87;;;14.37;;
15708;SDS011;7954;51.914;8.420;2022-12-10T08:16:10;13.53;;;12.23;;
15708;SDS011;7954;51.914;8.420;2022-12-10T08:18:41;13.73;;;12.40;;
15708;SDS011;7954;51.914;8.420;2022-12-10T08:21:11;12.87;;;11.67;;
15708;SDS011;7954;51.914;8.420;2022-12-10T08:23:40;14.60;;;13.20;;
15708;SDS011;7954;51.914;8.420;2022-12-10T08:26:09;13.47;;;12.20;;
15708;SDS011;7954;51.914;8.420;2022-12-10T08:28:40;13.97;;;12.67;;
15708;SDS011;7954;51.914;8.420;2022-12-10T08:31:10;14.07;;;12.63;;
15708;SDS011;7954;51.914;8.420;2022-12-10T08:33:40;14.10;;;12.80;;
15708;SDS011;7954;51.914;8.420;2022-12-10T08:36:09;12.97;;;11.77;;
15708;SDS011;7954;51.914;8.420;2022-12-10T08:38:39;14.07;;;12.77;;
15708;SDS011;7954;51.914;8.420;2022-12-10T08:41:08;14.90;;;13.50;;
15708;SDS011;7954;51.914;8.420;2022-12-10T08:43:37;14.37;;;12.97;;
15708;SDS011;7954;51.914;8.420;2022-12-10T08:46:06;14.13;;;12.87;;
15708;SDS011;7954;51.914;8.420;2022-12-10T08:48:36;14.10;;;12.70;;
15708;SDS011;7954;51.914;8.420;2022-12-10T08:51:05;13.40;;;12.20;;
15708;SDS011;7954;51.914;8.420;2022-12-10T08:53:34;14.20;;;12.90;;
15708;SDS011;7954;51.914;8.420;2022-12-10T08:56:03;14.73;;;13.33;;
15708;SDS011;7954;51.914;8.420;2022-12-10T08:58:31;14.90;;;13.43;;
15708;SDS011;7954;51.914;8.420;2022-12-10T09:00:59;15.70;;;14.13;;
15708;SDS011;7954;51.914;8.420;2022-12-10T09:03:28;13.70;;;12.40;;
15708;SDS011;7954;51.914;8.420;2022-12-10T09:05:59;15.23;;;13.73;;
15708;SDS011;7954;51.914;8.420;2022-12-10T09:08:29;15.27;;;13.77;;
15708;SDS011;7954;51.914;8.420;2022-12-10T09:10:57;14.80;;;13.27;;
15708;SDS011;7954;51.914;8.420;2022-12-10T09:13:25;14.00;;;12.60;;
15708;SDS011;7954;51.914;8.420;2022-12-10T09:15:53;15.33;;;13.83;;
15708;SDS011;7954;51.914;8.420;2022-12-10T09:18:21;14.17;;;12.77;;
15708;SDS011;7954;51.914;8.420;2022-12-10T09:20:49;17.33;;;14.33;;
15708;SDS011;7954;51.914;8.420;2022-12-10T09:23:19;15.33;;;13.73;;
15708;SDS011;7954;51.914;8.420;2022-12-10T09:25:47;15.23;;;13.63;;
15708;SDS011;7954;51.914;8.420;2022-12-10T09:28:15;15.10;;;13.70;;
15708;SDS011;7954;51.914;8.420;2022-12-10T09:30:43;16.00;;;14.33;;
15708;SDS011;7954;51.914;8.420;2022-12-10T09:33:12;14.67;;;13.30;;
15708;SDS011;7954;51.914;8.420;2022-12-10T09:35:40;13.97;;;12.67;;
15708;SDS011;7954;51.914;8.420;2022-12-10T09:38:09;14.77;;;13.37;;
15708;SDS011;7954;51.914;8.420;2022-12-10T09:40:40;15.17;;;13.67;;
15708;SDS011;7954;51.914;8.420;2022-12-10T09:43:14;14.57;;;13.17;;
15708;SDS011;7954;51.914;8.420;2022-12-10T09:45:53;16.10;;;14.50;;
15708;SDS011;7954;51.914;8.420;2022-12-10T09:48:32;14.93;;;13.53;;
15708;SDS011;7954;51.914;8.420;2022-12-10T09:51:09;16.17;;;13.63;;
15708;SDS011;7954;51.914;8.420;2022-12-10T09:53:42;16.00;;;14.50;;
15708;SDS011;7954;51.914;8.420;2022-12-10T09:56:17;15.43;;;13.93;;
15708;SDS011;7954;51.914;8.420;2022-12-10T09:58:49;14.60;;;13.20;;
15708;SDS011;7954;51.914;8.420;2022-12-10T10:01:18;14.93;;;13.53;;
15708;SDS011;7954;51.914;8.420;2022-12-10T10:03:50;15.33;;;13.83;;
15708;SDS011;7954;51.914;8.420;2022-12-10T10:06:18;14.30;;;13.00;;
15708;SDS011;7954;51.914;8.420;2022-12-10T10:08:50;14.50;;;13.10;;
15708;SDS011;7954;51.914;8.420;2022-12-10T10:11:23;14.13;;;12.63;;
15708;SDS011;7954;51.914;8.420;2022-12-10T10:13:55;15.40;;;13.90;;
15708;SDS011;7954;51.914;8.420;2022-12-10T10:16:27;14.20;;;12.80;;
15708;SDS011;7954;51.914;8.420;2022-12-10T10:19:00;14.20;;;12.87;;
15708;SDS011;7954;51.914;8.420;2022-12-10T10:21:32;14.37;;;13.03;;
15708;SDS011;7954;51.914;8.420;2022-12-10T10:24:02;14.30;;;12.90;;
15708;SDS011;7954;51.914;8.420;2022-12-10T10:26:38;14.93;;;13.53;;
15708;SDS011;7954;51.914;8.420;2022-12-10T10:29:07;13.93;;;12.63;;
15708;SDS011;7954;51.914;8.420;2022-12-10T10:31:38;13.47;;;12.23;;
15708;SDS011;7954;51.914;8.420;2022-12-10T10:34:12;13.33;;;12.03;;
15708;SDS011;7954;51.914;8.420;2022-12-10T10:36:43;14.33;;;12.97;;
15708;SDS011;7954;51.914;8.420;2022-12-10T10:39:19;14.33;;;12.93;;
15708;SDS011;7954;51.914;8.420;2022-12-10T10:41:56;14.10;;;12.67;;
15708;SDS011;7954;51.914;8.420;2022-12-10T10:44:26;15.50;;;13.97;;
15708;SDS011;7954;51.914;8.420;2022-12-10T10:46:55;14.17;;;12.77;;
15708;SDS011;7954;51.914;8.420;2022-12-10T10:49:24;14.23;;;12.83;;
15708;SDS011;7954;51.914;8.420;2022-12-10T10:51:58;14.10;;;12.80;;
15708;SDS011;7954;51.914;8.420;2022-12-10T10:54:31;13.80;;;12.50;;
15708;SDS011;7954;51.914;8.420;2022-12-10T10:57:02;14.30;;;12.90;;
15708;SDS011;7954;51.914;8.420;2022-12-10T10:59:34;14.33;;;12.93;;
15708;SDS011;7954;51.914;8.420;2022-12-10T11:02:08;14.00;;;12.53;;
15708;SDS011;7954;51.914;8.420;2022-12-10T11:04:46;13.73;;;12.47;;
15708;SDS011;7954;51.914;8.420;2022-12-10T11:07:19;13.37;;;12.17;;
15708;SDS011;7954;51.914;8.420;2022-12-10T11:09:49;14.43;;;13.07;;
15708;SDS011;7954;51.914;8.420;2022-12-10T11:12:27;14.43;;;13.07;;
15708;SDS011;7954;51.914;8.420;2022-12-10T11:15:02;13.90;;;12.60;;
15708;SDS011;7954;51.914;8.420;2022-12-10T11:17:55;13.23;;;12.00;;
15708;SDS011;7954;51.914;8.420;2022-12-10T11:20:24;13.40;;;12.10;;
15708;SDS011;7954;51.914;8.420;2022-12-10T11:22:54;12.47;;;11.27;;
15708;SDS011;7954;51.914;8.420;2022-12-10T11:25:29;13.30;;;12.03;;
15708;SDS011;7954;51.914;8.420;2022-12-10T11:28:12;13.10;;;11.90;;
15708;SDS011;7954;51.914;8.420;2022-12-10T11:30:53;11.97;;;10.87;;
15708;SDS011;7954;51.914;8.420;2022-12-10T11:33:31;12.23;;;11.13;;
15708;SDS011;7954;51.914;8.420;2022-12-10T11:36:06;13.07;;;11.87;;
15708;SDS011;7954;51.914;8.420;2022-12-10T11:38:47;12.70;;;11.50;;
15708;SDS011;7954;51.914;8.420;2022-12-10T11:41:28;13.07;;;11.77;;
15708;SDS011;7954;51.914;8.420;2022-12-10T11:44:12;13.57;;;12.27;;
15708;SDS011;7954;51.914;8.420;2022-12-10T11:47:05;12.40;;;11.23;;
15708;SDS011;7954;51.914;8.420;2022-12-10T11:49:47;11.40;;;10.37;;
15708;SDS011;7954;51.914;8.420;2022-12-10T11:52:26;13.57;;;12.37;;
15708;SDS011;7954;51.914;8.420;2022-12-10T11:55:09;12.17;;;10.97;;
15708;SDS011;7954;51.914;8.420;2022-12-10T11:57:52;12.33;;;10.97;;
15708;SDS011;7954;51.914;8.420;2022-12-10T12:00:32;11.87;;;10.77;;
15708;SDS011;7954;51.914;8.420;2022-12-10T12:03:11;12.23;;;11.13;;
15708;SDS011;7954;51.914;8.420;2022-12-10T12:05:58;13.90;;;12.37;;
15708;SDS011;7954;51.914;8.420;2022-12-10T12:08:38;13.17;;;11.97;;
15708;SDS011;7954;51.914;8.420;2022-12-10T12:11:20;11.70;;;10.70;;
15708;SDS011;7954;51.914;8.420;2022-12-10T12:14:08;10.77;;;9.77;;
15708;SDS011;7954;51.914;8.420;2022-12-10T12:16:44;12.47;;;10.93;;
15708;SDS011;7954;51.914;8.420;2022-12-10T12:19:17;11.30;;;10.30;;
15708;SDS011;7954;51.914;8.420;2022-12-10T12:21:50;9.87;;;8.97;;
15708;SDS011;7954;51.914;8.420;2022-12-10T12:24:20;10.20;;;9.20;;
15708;SDS011;7954;51.914;8.420;2022-12-10T12:26:53;10.60;;;9.53;;
15708;SDS011;7954;51.914;8.420;2022-12-10T12:29:25;11.33;;;10.23;;
15708;SDS011;7954;51.914;8.420;2022-12-10T12:32:04;9.07;;;8.20;;
15708;SDS011;7954;51.914;8.420;2022-12-10T12:34:43;10.27;;;9.27;;
15708;SDS011;7954;51.914;8.420;2022-12-10T12:37:16;9.77;;;8.87;;
15708;SDS011;7954;51.914;8.420;2022-12-10T12:39:48;9.00;;;8.10;;
15708;SDS011;7954;51.914;8.420;2022-12-10T12:42:22;9.43;;;8.53;;
15708;SDS011;7954;51.914;8.420;2022-12-10T12:44:57;10.63;;;9.53;;
15708;SDS011;7954;51.914;8.420;2022-12-10T12:47:34;10.57;;;9.57;;
15708;SDS011;7954;51.914;8.420;2022-12-10T12:50:11;9.70;;;8.70;;
15708;SDS011;7954;51.914;8.420;2022-12-10T12:52:50;10.07;;;9.07;;
15708;SDS011;7954;51.914;8.420;2022-12-10T12:55:22;9.23;;;8.33;;
15708;SDS011;7954;51.914;8.420;2022-12-10T12:57:59;10.50;;;9.50;;
15708;SDS011;7954;51.914;8.420;2022-12-10T13:00:38;10.17;;;9.17;;
15708;SDS011;7954;51.914;8.420;2022-12-10T13:03:17;10.50;;;9.50;;
15708;SDS011;7954;51.914;8.420;2022-12-10T13:05:51;10.83;;;9.73;;
15708;SDS011;7954;51.914;8.420;2022-12-10T13:11:17;9.53;;;8.53;;
15708;SDS011;7954;51.914;8.420;2022-12-10T13:16:49;9.70;;;8.80;;
15708;SDS011;7954;51.914;8.420;2022-12-10T13:19:29;9.77;;;8.87;;
15708;SDS011;7954;51.914;8.420;2022-12-10T13:22:00;10.40;;;9.40;;
15708;SDS011;7954;51.914;8.420;2022-12-10T13:24:43;10.10;;;9.13;;
15708;SDS011;7954;51.914;8.420;2022-12-10T13:27:29;8.90;;;8.03;;
15708;SDS011;7954;51.914;8.420;2022-12-10T13:30:00;9.27;;;8.37;;
15708;SDS011;7954;51.914;8.420;2022-12-10T13:32:44;9.50;;;8.60;;
15708;SDS011;7954;51.914;8.420;2022-12-10T13:35:22;9.50;;;8.60;;
15708;SDS011;7954;51.914;8.420;2022-12-10T13:37:56;9.50;;;8.60;;
15708;SDS011;7954;51.914;8.420;2022-12-10T13:40:37;9.90;;;8.57;;
15708;SDS011;7954;51.914;8.420;2022-12-10T13:43:26;9.83;;;8.83;;
15708;SDS011;7954;51.914;8.420;2022-12-10T13:46:20;9.80;;;8.80;;
15708;SDS011;7954;51.914;8.420;2022-12-10T13:48:50;9.33;;;8.43;;
15708;SDS011;7954;51.914;8.420;2022-12-10T13:51:36;9.47;;;8.57;;
15708;SDS011;7954;51.914;8.420;2022-12-10T13:57:14;9.27;;;8.40;;
15708;SDS011;7954;51.914;8.420;2022-12-10T13:59:55;9.13;;;8.23;;
15708;SDS011;7954;51.914;8.420;2022-12-10T14:02:38;9.73;;;8.83;;
15708;SDS011;7954;51.914;8.420;2022-12-10T14:05:20;8.67;;;7.73;;
15708;SDS011;7954;51.914;8.420;2022-12-10T14:07:56;9.60;;;8.77;;
15708;SDS011;7954;51.914;8.420;2022-12-10T14:10:31;8.80;;;8.00;;
15708;SDS011;7954;51.914;8.420;2022-12-10T14:13:00;10.43;;;8.50;;
15708;SDS011;7954;51.914;8.420;2022-12-10T14:15:30;9.83;;;8.93;;
15708;SDS011;7954;51.914;8.420;2022-12-10T14:18:03;13.70;;;12.37;;
15708;SDS011;7954;51.914;8.420;2022-12-10T14:20:33;12.57;;;11.23;;
15708;SDS011;7954;51.914;8.420;2022-12-10T14:23:05;11.03;;;10.03;;
15708;SDS011;7954;51.914;8.420;2022-12-10T14:26:09;9.53;;;8.63;;
15708;SDS011;7954;51.914;8.420;2022-12-10T14:28:40;10.10;;;9.10;;
15708;SDS011;7954;51.914;8.420;2022-12-10T14:31:13;9.90;;;9.00;;
15708;SDS011;7954;51.914;8.420;2022-12-10T14:33:45;11.50;;;9.53;;
15708;SDS011;7954;51.914;8.420;2022-12-10T14:36:16;10.43;;;9.37;;
15708;SDS011;7954;51.914;8.420;2022-12-10T14:38:51;10.90;;;9.80;;
15708;SDS011;7954;51.914;8.420;2022-12-10T14:41:20;9.90;;;8.90;;
15708;SDS011;7954;51.914;8.420;2022-12-10T14:43:50;9.97;;;8.97;;
15708;SDS011;7954;51.914;8.420;2022-12-10T14:46:21;9.70;;;8.80;;
15708;SDS011;7954;51.914;8.420;2022-12-10T14:48:51;9.30;;;8.37;;
15708;SDS011;7954;51.914;8.420;2022-12-10T14:51:23;10.13;;;9.10;;
15708;SDS011;7954;51.914;8.420;2022-12-10T14:53:55;10.17;;;9.20;;
15708;SDS011;7954;51.914;8.420;2022-12-10T14:56:24;10.87;;;9.77;;
15708;SDS011;7954;51.914;8.420;2022-12-10T14:58:56;11.60;;;10.40;;
15708;SDS011;7954;51.914;8.420;2022-12-10T15:01:29;10.20;;;9.20;;
15708;SDS011;7954;51.914;8.420;2022-12-10T15:04:00;11.37;;;10.27;;
15708;SDS011;7954;51.914;8.420;2022-12-10T15:06:32;10.97;;;9.87;;
15708;SDS011;7954;51.914;8.420;2022-12-10T15:09:06;11.00;;;10.00;;
15708;SDS011;7954;51.914;8.420;2022-12-10T15:11:41;11.37;;;10.27;;
15708;SDS011;7954;51.914;8.420;2022-12-10T15:14:11;10.50;;;9.50;;
15708;SDS011;7954;51.914;8.420;2022-12-10T15:16:44;11.00;;;9.73;;